sensor_id;sensor_type;location;lat;lon;timestamp;pressure;altitude;pressure_sealevel;temperature;humidity
65897;BME280;52677;50.898;10.854;2024-01-11T00:01:04;99868.75;;;-12.80;100.00
65897;BME280;52677;50.898;10.854;2024-01-11T00:03:04;99869.09;;;-12.83;100.00
65897;BME280;52677;50.898;10.854;2024-01-11T00:05:05;99870.31;;;-12.86;100.00
65897;BME280;52677;50.898;10.854;2024-01-11T00:07:06;99860.28;;;-12.84;100.00
65897;BME280;52677;50.898;10.854;2024-01-11T00:09:06;99863.78;;;-12.83;100.00
65897;BME280;52677;50.898;10.854;2024-01-11T00:11:07;99859.88;;;-12.87;100.00
65897;BME280;52677;50.898;10.854;2024-01-11T00:13:07;99861.94;;;-12.83;100.00
65897;BME280;52677;50.898;10.854;2024-01-11T00:15:08;99859.09;;;-12.81;100.00
65897;BME280;52677;50.898;10.854;2024-01-11T00:17:08;99863.16;;;-12.85;100.00
65897;BME280;52677;50.898;10.854;2024-01-11T00:19:08;99853.66;;;-12.94;100.00
65897;BME280;52677;50.898;10.854;2024-01-11T00:21:09;99855.00;;;-13.05;100.00
65897;BME280;52677;50.898;10.854;2024-01-11T00:23:09;99855.44;;;-13.01;100.00
65897;BME280;52677;50.898;10.854;2024-01-11T00:25:09;99853.16;;;-13.05;100.00
65897;BME280;52677;50.898;10.854;2024-01-11T00:27:10;99863.97;;;-13.13;100.00
65897;BME280;52677;50.898;10.854;2024-01-11T00:29:10;99869.03;;;-13.18;100.00
65897;BME280;52677;50.898;10.854;2024-01-11T00:31:11;99864.13;;;-13.21;100.00
65897;BME280;52677;50.898;10.854;2024-01-11T00:33:11;99865.78;;;-13.13;100.00
65897;BME280;52677;50.898;10.854;2024-01-11T00:35:11;99869.47;;;-13.14;100.00
65897;BME280;52677;50.898;10.854;2024-01-11T00:37:11;99860.34;;;-13.05;100.00
65897;BME280;52677;50.898;10.854;2024-01-11T00:39:12;99859.38;;;-12.97;100.00
65897;BME280;52677;50.898;10.854;2024-01-11T00:41:12;99852.00;;;-12.95;100.00
65897;BME280;52677;50.898;10.854;2024-01-11T00:43:12;99848.53;;;-12.96;100.00
65897;BME280;52677;50.898;10.854;2024-01-11T00:45:13;99848.28;;;-13.01;100.00
65897;BME280;52677;50.898;10.854;2024-01-11T00:47:13;99854.81;;;-13.04;100.00
65897;BME280;52677;50.898;10.854;2024-01-11T00:49:13;99857.03;;;-13.07;100.00
65897;BME280;52677;50.898;10.854;2024-01-11T00:51:15;99856.03;;;-13.06;100.00
65897;BME280;52677;50.898;10.854;2024-01-11T00:53:15;99842.50;;;-13.05;100.00
65897;BME280;52677;50.898;10.854;2024-01-11T00:55:16;99843.75;;;-13.00;100.00
65897;BME280;52677;50.898;10.854;2024-01-11T00:57:17;99843.75;;;-13.00;100.00
65897;BME280;52677;50.898;10.854;2024-01-11T00:59:17;99849.47;;;-13.04;100.00
65897;BME280;52677;50.898;10.854;2024-01-11T01:01:17;99844.16;;;-13.04;100.00
65897;BME280;52677;50.898;10.854;2024-01-11T01:03:19;99840.28;;;-13.01;100.00
65897;BME280;52677;50.898;10.854;2024-01-11T01:05:19;99839.22;;;-13.07;100.00
65897;BME280;52677;50.898;10.854;2024-01-11T01:07:20;99840.88;;;-13.06;100.00
65897;BME280;52677;50.898;10.854;2024-01-11T01:09:20;99843.66;;;-13.14;100.00
65897;BME280;52677;50.898;10.854;2024-01-11T01:11:20;99831.38;;;-13.15;100.00
65897;BME280;52677;50.898;10.854;2024-01-11T01:13:21;99829.41;;;-12.99;100.00
65897;BME280;52677;50.898;10.854;2024-01-11T01:15:21;99835.75;;;-13.00;100.00
65897;BME280;52677;50.898;10.854;2024-01-11T01:17:22;99830.63;;;-13.02;100.00
65897;BME280;52677;50.898;10.854;2024-01-11T01:19:22;99818.13;;;-13.01;100.00
65897;BME280;52677;50.898;10.854;2024-01-11T01:21:22;99824.88;;;-13.06;100.00
65897;BME280;52677;50.898;10.854;2024-01-11T01:23:23;99834.66;;;-13.13;100.00
65897;BME280;52677;50.898;10.854;2024-01-11T01:25:23;99823.53;;;-13.16;100.00
65897;BME280;52677;50.898;10.854;2024-01-11T01:27:24;99821.97;;;-13.11;100.00
65897;BME280;52677;50.898;10.854;2024-01-11T01:29:24;99832.56;;;-13.17;100.00
65897;BME280;52677;50.898;10.854;2024-01-11T01:31:24;99826.81;;;-13.21;100.00
65897;BME280;52677;50.898;10.854;2024-01-11T01:33:25;99828.88;;;-13.23;100.00
65897;BME280;52677;50.898;10.854;2024-01-11T01:35:25;99823.91;;;-13.26;100.00
65897;BME280;52677;50.898;10.854;2024-01-11T01:37:26;99824.56;;;-13.17;100.00
65897;BME280;52677;50.898;10.854;2024-01-11T01:39:26;99816.19;;;-13.21;100.00
65897;BME280;52677;50.898;10.854;2024-01-11T01:41:26;99815.72;;;-13.24;100.00
65897;BME280;52677;50.898;10.854;2024-01-11T01:43:27;99817.31;;;-13.30;100.00
65897;BME280;52677;50.898;10.854;2024-01-11T01:45:27;99819.53;;;-13.34;100.00
65897;BME280;52677;50.898;10.854;2024-01-11T01:47:27;99818.63;;;-13.41;100.00
65897;BME280;52677;50.898;10.854;2024-01-11T01:49:28;99817.47;;;-13.38;100.00
65897;BME280;52677;50.898;10.854;2024-01-11T01:51:29;99804.97;;;-13.38;100.00
65897;BME280;52677;50.898;10.854;2024-01-11T01:53:31;99804.91;;;-13.44;100.00
65897;BME280;52677;50.898;10.854;2024-01-11T01:55:32;99804.47;;;-13.48;100.00
65897;BME280;52677;50.898;10.854;2024-01-11T01:57:33;99804.63;;;-13.49;100.00
65897;BME280;52677;50.898;10.854;2024-01-11T01:59:34;99800.31;;;-13.50;100.00
65897;BME280;52677;50.898;10.854;2024-01-11T02:01:35;99801.81;;;-13.48;100.00
65897;BME280;52677;50.898;10.854;2024-01-11T02:03:35;99794.81;;;-13.49;100.00
65897;BME280;52677;50.898;10.854;2024-01-11T02:05:36;99788.94;;;-13.44;100.00
65897;BME280;52677;50.898;10.854;2024-01-11T02:07:37;99779.84;;;-13.50;100.00
65897;BME280;52677;50.898;10.854;2024-01-11T02:09:37;99779.44;;;-13.53;100.00
65897;BME280;52677;50.898;10.854;2024-01-11T02:11:38;99775.31;;;-13.56;100.00
65897;BME280;52677;50.898;10.854;2024-01-11T02:13:41;99767.97;;;-13.54;100.00
65897;BME280;52677;50.898;10.854;2024-01-11T02:15:41;99770.28;;;-13.44;100.00
65897;BME280;52677;50.898;10.854;2024-01-11T02:17:42;99765.16;;;-13.46;100.00
65897;BME280;52677;50.898;10.854;2024-01-11T02:19:42;99780.25;;;-13.53;100.00
65897;BME280;52677;50.898;10.854;2024-01-11T02:21:43;99776.50;;;-13.58;100.00
65897;BME280;52677;50.898;10.854;2024-01-11T02:26:18;99780.94;;;-13.66;100.00
65897;BME280;52677;50.898;10.854;2024-01-11T02:28:19;99791.34;;;-13.71;100.00
65897;BME280;52677;50.898;10.854;2024-01-11T02:30:19;99804.25;;;-13.68;100.00
65897;BME280;52677;50.898;10.854;2024-01-11T02:32:20;99796.34;;;-13.61;100.00
65897;BME280;52677;50.898;10.854;2024-01-11T02:34:20;99788.63;;;-13.56;100.00
65897;BME280;52677;50.898;10.854;2024-01-11T02:36:21;99793.16;;;-13.50;100.00
65897;BME280;52677;50.898;10.854;2024-01-11T02:38:22;99770.16;;;-13.57;100.00
65897;BME280;52677;50.898;10.854;2024-01-11T02:40:22;99784.75;;;-13.53;100.00
65897;BME280;52677;50.898;10.854;2024-01-11T02:42:23;99794.13;;;-13.57;100.00
65897;BME280;52677;50.898;10.854;2024-01-11T02:44:23;99790.19;;;-13.62;100.00
65897;BME280;52677;50.898;10.854;2024-01-11T02:46:24;99790.72;;;-13.73;100.00
65897;BME280;52677;50.898;10.854;2024-01-11T02:48:28;99795.13;;;-13.58;100.00
65897;BME280;52677;50.898;10.854;2024-01-11T02:50:28;99793.75;;;-13.54;100.00
65897;BME280;52677;50.898;10.854;2024-01-11T02:52:29;99787.22;;;-13.52;100.00
65897;BME280;52677;50.898;10.854;2024-01-11T02:54:29;99798.75;;;-13.45;100.00
65897;BME280;52677;50.898;10.854;2024-01-11T02:56:29;99791.72;;;-13.52;100.00
65897;BME280;52677;50.898;10.854;2024-01-11T02:58:30;99794.94;;;-13.57;100.00
65897;BME280;52677;50.898;10.854;2024-01-11T03:00:30;99795.81;;;-13.50;100.00
65897;BME280;52677;50.898;10.854;2024-01-11T03:02:30;99792.94;;;-13.55;100.00
65897;BME280;52677;50.898;10.854;2024-01-11T03:04:30;99802.38;;;-13.52;100.00
65897;BME280;52677;50.898;10.854;2024-01-11T03:06:31;99798.06;;;-13.53;100.00
65897;BME280;52677;50.898;10.854;2024-01-11T03:08:31;99798.13;;;-13.47;100.00
65897;BME280;52677;50.898;10.854;2024-01-11T03:10:31;99803.88;;;-13.43;100.00
65897;BME280;52677;50.898;10.854;2024-01-11T03:12:32;99799.56;;;-13.44;100.00
65897;BME280;52677;50.898;10.854;2024-01-11T03:14:32;99808.09;;;-13.55;100.00
65897;BME280;52677;50.898;10.854;2024-01-11T03:16:32;99787.97;;;-13.58;100.00
65897;BME280;52677;50.898;10.854;2024-01-11T03:18:33;99803.31;;;-13.60;100.00
65897;BME280;52677;50.898;10.854;2024-01-11T03:20:33;99802.88;;;-13.64;100.00
65897;BME280;52677;50.898;10.854;2024-01-11T03:22:33;99805.06;;;-13.67;100.00
65897;BME280;52677;50.898;10.854;2024-01-11T03:24:37;99809.34;;;-13.73;100.00
65897;BME280;52677;50.898;10.854;2024-01-11T03:26:40;99822.25;;;-13.70;100.00
65897;BME280;52677;50.898;10.854;2024-01-11T03:28:41;99806.09;;;-13.68;100.00
65897;BME280;52677;50.898;10.854;2024-01-11T03:30:41;99812.63;;;-13.71;100.00
65897;BME280;52677;50.898;10.854;2024-01-11T03:32:41;99822.66;;;-13.73;100.00
65897;BME280;52677;50.898;10.854;2024-01-11T03:34:42;99816.66;;;-13.75;100.00
65897;BME280;52677;50.898;10.854;2024-01-11T03:36:42;99831.25;;;-13.71;100.00
65897;BME280;52677;50.898;10.854;2024-01-11T03:38:42;99836.31;;;-13.76;100.00
65897;BME280;52677;50.898;10.854;2024-01-11T03:40:43;99842.84;;;-13.78;100.00
65897;BME280;52677;50.898;10.854;2024-01-11T03:42:43;99840.50;;;-13.67;100.00
65897;BME280;52677;50.898;10.854;2024-01-11T03:44:44;99835.19;;;-13.67;100.00
65897;BME280;52677;50.898;10.854;2024-01-11T03:46:44;99834.53;;;-13.69;100.00
65897;BME280;52677;50.898;10.854;2024-01-11T03:48:44;99842.41;;;-13.61;100.00
65897;BME280;52677;50.898;10.854;2024-01-11T03:50:44;99848.47;;;-13.67;100.00
65897;BME280;52677;50.898;10.854;2024-01-11T03:52:45;99837.00;;;-13.67;100.00
65897;BME280;52677;50.898;10.854;2024-01-11T03:54:45;99833.19;;;-13.65;100.00
65897;BME280;52677;50.898;10.854;2024-01-11T03:56:46;99842.34;;;-13.67;100.00
65897;BME280;52677;50.898;10.854;2024-01-11T03:58:46;99847.84;;;-13.69;100.00
65897;BME280;52677;50.898;10.854;2024-01-11T04:00:46;99849.50;;;-13.68;100.00
65897;BME280;52677;50.898;10.854;2024-01-11T04:02:47;99854.75;;;-13.74;100.00
65897;BME280;52677;50.898;10.854;2024-01-11T04:04:47;99853.75;;;-13.73;100.00
65897;BME280;52677;50.898;10.854;2024-01-11T04:06:48;99846.13;;;-13.76;100.00
65897;BME280;52677;50.898;10.854;2024-01-11T04:08:48;99836.94;;;-13.74;100.00
65897;BME280;52677;50.898;10.854;2024-01-11T04:10:48;99839.44;;;-13.72;100.00
65897;BME280;52677;50.898;10.854;2024-01-11T04:12:49;99838.63;;;-13.73;100.00
65897;BME280;52677;50.898;10.854;2024-01-11T04:14:49;99834.94;;;-13.72;100.00
65897;BME280;52677;50.898;10.854;2024-01-11T04:16:50;99828.59;;;-13.71;100.00
65897;BME280;52677;50.898;10.854;2024-01-11T04:18:50;99818.97;;;-13.72;100.00
65897;BME280;52677;50.898;10.854;2024-01-11T04:20:50;99817.50;;;-13.74;100.00
65897;BME280;52677;50.898;10.854;2024-01-11T04:22:51;99820.09;;;-13.81;100.00
65897;BME280;52677;50.898;10.854;2024-01-11T04:24:51;99820.84;;;-13.87;100.00
65897;BME280;52677;50.898;10.854;2024-01-11T04:26:51;99819.94;;;-13.94;100.00
65897;BME280;52677;50.898;10.854;2024-01-11T04:28:52;99816.72;;;-13.90;100.00
65897;BME280;52677;50.898;10.854;2024-01-11T04:30:53;99818.00;;;-13.85;100.00
65897;BME280;52677;50.898;10.854;2024-01-11T04:32:53;99825.91;;;-13.92;100.00
65897;BME280;52677;50.898;10.854;2024-01-11T04:34:53;99836.19;;;-14.04;100.00
65897;BME280;52677;50.898;10.854;2024-01-11T04:36:53;99841.81;;;-14.13;100.00
65897;BME280;52677;50.898;10.854;2024-01-11T04:38:54;99830.81;;;-14.25;100.00
65897;BME280;52677;50.898;10.854;2024-01-11T04:40:54;99808.69;;;-14.11;100.00
65897;BME280;52677;50.898;10.854;2024-01-11T04:42:54;99811.44;;;-14.04;100.00
65897;BME280;52677;50.898;10.854;2024-01-11T04:44:55;99817.81;;;-13.99;100.00
65897;BME280;52677;50.898;10.854;2024-01-11T04:46:55;99823.44;;;-14.08;100.00
65897;BME280;52677;50.898;10.854;2024-01-11T04:48:55;99827.03;;;-14.16;100.00
65897;BME280;52677;50.898;10.854;2024-01-11T04:50:56;99828.16;;;-14.25;100.00
65897;BME280;52677;50.898;10.854;2024-01-11T04:52:56;99824.78;;;-14.34;100.00
65897;BME280;52677;50.898;10.854;2024-01-11T04:54:56;99836.59;;;-14.22;100.00
65897;BME280;52677;50.898;10.854;2024-01-11T04:56:57;99837.66;;;-14.16;100.00
65897;BME280;52677;50.898;10.854;2024-01-11T04:58:57;99821.16;;;-14.11;100.00
65897;BME280;52677;50.898;10.854;2024-01-11T05:00:59;99827.31;;;-14.11;100.00
65897;BME280;52677;50.898;10.854;2024-01-11T05:03:00;99834.75;;;-14.06;100.00
65897;BME280;52677;50.898;10.854;2024-01-11T05:05:00;99830.69;;;-14.02;100.00
65897;BME280;52677;50.898;10.854;2024-01-11T05:07:00;99827.91;;;-13.94;100.00
65897;BME280;52677;50.898;10.854;2024-01-11T05:09:01;99818.28;;;-13.95;100.00
65897;BME280;52677;50.898;10.854;2024-01-11T05:11:02;99812.13;;;-13.81;100.00
65897;BME280;52677;50.898;10.854;2024-01-11T05:13:02;99803.13;;;-13.80;100.00
65897;BME280;52677;50.898;10.854;2024-01-11T05:15:03;99804.13;;;-13.81;100.00
65897;BME280;52677;50.898;10.854;2024-01-11T05:17:03;99812.94;;;-13.80;100.00
65897;BME280;52677;50.898;10.854;2024-01-11T05:19:03;99827.44;;;-13.83;100.00
65897;BME280;52677;50.898;10.854;2024-01-11T05:21:04;99832.50;;;-13.88;100.00
65897;BME280;52677;50.898;10.854;2024-01-11T05:23:04;99856.06;;;-13.85;100.00
65897;BME280;52677;50.898;10.854;2024-01-11T05:25:05;99849.09;;;-13.86;100.00
65897;BME280;52677;50.898;10.854;2024-01-11T05:27:05;99852.59;;;-13.85;100.00
65897;BME280;52677;50.898;10.854;2024-01-11T05:29:07;99859.81;;;-13.79;100.00
65897;BME280;52677;50.898;10.854;2024-01-11T05:31:12;99866.06;;;-13.72;100.00
65897;BME280;52677;50.898;10.854;2024-01-11T05:33:12;99865.94;;;-13.64;100.00
65897;BME280;52677;50.898;10.854;2024-01-11T05:35:13;99874.03;;;-13.51;100.00
65897;BME280;52677;50.898;10.854;2024-01-11T05:37:14;99881.91;;;-13.43;100.00
65897;BME280;52677;50.898;10.854;2024-01-11T05:39:14;99897.34;;;-13.38;100.00
65897;BME280;52677;50.898;10.854;2024-01-11T05:41:14;99890.38;;;-13.39;100.00
65897;BME280;52677;50.898;10.854;2024-01-11T05:43:15;99893.47;;;-13.36;100.00
65897;BME280;52677;50.898;10.854;2024-01-11T05:45:15;99897.78;;;-13.35;100.00
65897;BME280;52677;50.898;10.854;2024-01-11T05:47:18;99898.41;;;-13.33;100.00
65897;BME280;52677;50.898;10.854;2024-01-11T05:49:18;99899.88;;;-13.30;100.00
65897;BME280;52677;50.898;10.854;2024-01-11T05:51:19;99897.53;;;-13.40;100.00
65897;BME280;52677;50.898;10.854;2024-01-11T05:53:19;99886.69;;;-13.38;100.00
65897;BME280;52677;50.898;10.854;2024-01-11T05:55:20;99883.22;;;-13.39;100.00
65897;BME280;52677;50.898;10.854;2024-01-11T05:57:21;99891.00;;;-13.37;100.00
65897;BME280;52677;50.898;10.854;2024-01-11T05:59:22;99882.00;;;-13.36;100.00
65897;BME280;52677;50.898;10.854;2024-01-11T06:01:22;99894.06;;;-13.40;100.00
65897;BME280;52677;50.898;10.854;2024-01-11T06:03:22;99884.16;;;-13.46;100.00
65897;BME280;52677;50.898;10.854;2024-01-11T06:05:23;99867.91;;;-13.51;100.00
65897;BME280;52677;50.898;10.854;2024-01-11T06:07:23;99862.56;;;-13.51;100.00
65897;BME280;52677;50.898;10.854;2024-01-11T06:09:23;99856.63;;;-13.53;100.00
65897;BME280;52677;50.898;10.854;2024-01-11T06:11:24;99861.69;;;-13.58;100.00
65897;BME280;52677;50.898;10.854;2024-01-11T06:13:24;99855.91;;;-13.62;100.00
65897;BME280;52677;50.898;10.854;2024-01-11T06:15:25;99858.22;;;-13.74;100.00
65897;BME280;52677;50.898;10.854;2024-01-11T06:17:25;99853.28;;;-13.77;100.00
65897;BME280;52677;50.898;10.854;2024-01-11T06:19:25;99844.69;;;-13.79;100.00
65897;BME280;52677;50.898;10.854;2024-01-11T06:21:26;99822.81;;;-13.74;100.00
65897;BME280;52677;50.898;10.854;2024-01-11T06:23:26;99811.00;;;-13.72;100.00
65897;BME280;52677;50.898;10.854;2024-01-11T06:25:26;99811.72;;;-13.78;100.00
65897;BME280;52677;50.898;10.854;2024-01-11T06:27:27;99814.00;;;-13.75;100.00
65897;BME280;52677;50.898;10.854;2024-01-11T06:29:27;99817.16;;;-13.86;100.00
65897;BME280;52677;50.898;10.854;2024-01-11T06:31:28;99825.53;;;-13.89;100.00
65897;BME280;52677;50.898;10.854;2024-01-11T06:33:29;99828.56;;;-13.92;100.00
65897;BME280;52677;50.898;10.854;2024-01-11T06:35:29;99828.47;;;-13.99;100.00
65897;BME280;52677;50.898;10.854;2024-01-11T06:37:29;99843.78;;;-14.01;100.00
65897;BME280;52677;50.898;10.854;2024-01-11T06:39:30;99844.00;;;-14.02;100.00
65897;BME280;52677;50.898;10.854;2024-01-11T06:41:31;99839.69;;;-14.03;100.00
65897;BME280;52677;50.898;10.854;2024-01-11T06:43:31;99832.91;;;-14.06;100.00
65897;BME280;52677;50.898;10.854;2024-01-11T06:45:31;99848.28;;;-14.01;100.00
65897;BME280;52677;50.898;10.854;2024-01-11T06:47:32;99856.81;;;-13.91;100.00
65897;BME280;52677;50.898;10.854;2024-01-11T06:49:33;99864.88;;;-13.84;100.00
65897;BME280;52677;50.898;10.854;2024-01-11T06:51:33;99876.97;;;-13.82;100.00
65897;BME280;52677;50.898;10.854;2024-01-11T06:53:36;99880.72;;;-13.76;100.00
65897;BME280;52677;50.898;10.854;2024-01-11T06:55:36;99897.72;;;-13.77;100.00
65897;BME280;52677;50.898;10.854;2024-01-11T06:57:36;99878.69;;;-13.74;100.00
65897;BME280;52677;50.898;10.854;2024-01-11T06:59:37;99881.25;;;-13.66;100.00
65897;BME280;52677;50.898;10.854;2024-01-11T07:01:37;99867.94;;;-13.66;100.00
65897;BME280;52677;50.898;10.854;2024-01-11T07:03:38;99878.22;;;-13.63;100.00
65897;BME280;52677;50.898;10.854;2024-01-11T07:05:39;99870.31;;;-13.56;100.00
65897;BME280;52677;50.898;10.854;2024-01-11T07:07:39;99880.84;;;-13.48;100.00
65897;BME280;52677;50.898;10.854;2024-01-11T07:09:40;99869.75;;;-13.52;100.00
65897;BME280;52677;50.898;10.854;2024-01-11T07:11:40;99886.41;;;-13.43;100.00
65897;BME280;52677;50.898;10.854;2024-01-11T07:13:40;99902.59;;;-13.45;100.00
65897;BME280;52677;50.898;10.854;2024-01-11T07:15:41;99895.81;;;-13.47;100.00
65897;BME280;52677;50.898;10.854;2024-01-11T07:17:41;99911.00;;;-13.41;100.00
65897;BME280;52677;50.898;10.854;2024-01-11T07:19:41;99906.63;;;-13.49;100.00
65897;BME280;52677;50.898;10.854;2024-01-11T07:21:41;99910.06;;;-13.55;100.00
65897;BME280;52677;50.898;10.854;2024-01-11T07:23:42;99890.63;;;-13.70;100.00
65897;BME280;52677;50.898;10.854;2024-01-11T07:25:42;99909.25;;;-13.70;100.00
65897;BME280;52677;50.898;10.854;2024-01-11T07:27:43;99909.06;;;-13.69;100.00
65897;BME280;52677;50.898;10.854;2024-01-11T07:29:43;99907.13;;;-13.60;100.00
65897;BME280;52677;50.898;10.854;2024-01-11T07:31:43;99901.06;;;-13.54;100.00
65897;BME280;52677;50.898;10.854;2024-01-11T07:33:44;99898.72;;;-13.42;100.00
65897;BME280;52677;50.898;10.854;2024-01-11T07:35:44;99892.00;;;-13.38;100.00
65897;BME280;52677;50.898;10.854;2024-01-11T07:37:45;99879.97;;;-13.34;100.00
65897;BME280;52677;50.898;10.854;2024-01-11T07:39:46;99871.41;;;-13.29;100.00
65897;BME280;52677;50.898;10.854;2024-01-11T07:41:46;99880.84;;;-13.27;100.00
65897;BME280;52677;50.898;10.854;2024-01-11T07:43:46;99883.16;;;-13.17;100.00
65897;BME280;52677;50.898;10.854;2024-01-11T07:45:47;99875.38;;;-13.19;100.00
65897;BME280;52677;50.898;10.854;2024-01-11T07:47:47;99887.47;;;-13.16;100.00
65897;BME280;52677;50.898;10.854;2024-01-11T07:49:48;99881.16;;;-13.15;100.00
65897;BME280;52677;50.898;10.854;2024-01-11T07:51:48;99867.16;;;-13.24;100.00
65897;BME280;52677;50.898;10.854;2024-01-11T07:53:49;99871.69;;;-13.18;100.00
65897;BME280;52677;50.898;10.854;2024-01-11T07:55:49;99857.22;;;-13.09;100.00
65897;BME280;52677;50.898;10.854;2024-01-11T07:57:49;99858.69;;;-13.06;100.00
65897;BME280;52677;50.898;10.854;2024-01-11T07:59:50;99856.41;;;-13.09;100.00
65897;BME280;52677;50.898;10.854;2024-01-11T08:01:50;99846.56;;;-13.09;100.00
65897;BME280;52677;50.898;10.854;2024-01-11T08:03:52;99844.16;;;-13.04;100.00
65897;BME280;52677;50.898;10.854;2024-01-11T08:05:53;99842.44;;;-13.11;100.00
65897;BME280;52677;50.898;10.854;2024-01-11T08:07:53;99851.47;;;-13.12;100.00
65897;BME280;52677;50.898;10.854;2024-01-11T08:09:54;99844.03;;;-13.17;100.00
65897;BME280;52677;50.898;10.854;2024-01-11T08:11:54;99847.31;;;-13.21;100.00
65897;BME280;52677;50.898;10.854;2024-01-11T08:13:54;99848.72;;;-13.19;100.00
65897;BME280;52677;50.898;10.854;2024-01-11T08:15:55;99853.50;;;-13.14;100.00
65897;BME280;52677;50.898;10.854;2024-01-11T08:17:55;99849.41;;;-13.10;100.00
65897;BME280;52677;50.898;10.854;2024-01-11T08:19:55;99856.47;;;-13.02;100.00
65897;BME280;52677;50.898;10.854;2024-01-11T08:21:56;99866.28;;;-13.03;100.00
65897;BME280;52677;50.898;10.854;2024-01-11T08:23:56;99876.13;;;-13.04;100.00
65897;BME280;52677;50.898;10.854;2024-01-11T08:25:57;99884.31;;;-13.05;100.00
65897;BME280;52677;50.898;10.854;2024-01-11T08:27:57;99868.88;;;-13.10;100.00
65897;BME280;52677;50.898;10.854;2024-01-11T08:29:57;99861.53;;;-13.08;100.00
65897;BME280;52677;50.898;10.854;2024-01-11T08:31:58;99860.13;;;-13.04;100.00
65897;BME280;52677;50.898;10.854;2024-01-11T08:33:58;99853.25;;;-12.91;100.00
65897;BME280;52677;50.898;10.854;2024-01-11T08:35:59;99866.41;;;-12.90;100.00
65897;BME280;52677;50.898;10.854;2024-01-11T08:37:59;99867.25;;;-12.89;100.00
65897;BME280;52677;50.898;10.854;2024-01-11T08:39:59;99861.09;;;-12.90;100.00
65897;BME280;52677;50.898;10.854;2024-01-11T08:42:00;99855.56;;;-12.88;100.00
65897;BME280;52677;50.898;10.854;2024-01-11T08:44:00;99857.47;;;-12.82;100.00
65897;BME280;52677;50.898;10.854;2024-01-11T08:46:01;99853.19;;;-12.77;100.00
65897;BME280;52677;50.898;10.854;2024-01-11T08:48:02;99836.97;;;-12.75;100.00
65897;BME280;52677;50.898;10.854;2024-01-11T08:50:03;99833.81;;;-12.64;100.00
65897;BME280;52677;50.898;10.854;2024-01-11T08:52:07;99838.72;;;-12.61;100.00
65897;BME280;52677;50.898;10.854;2024-01-11T08:54:07;99853.34;;;-12.57;100.00
65897;BME280;52677;50.898;10.854;2024-01-11T08:56:09;99851.09;;;-12.53;100.00
65897;BME280;52677;50.898;10.854;2024-01-11T08:58:09;99850.25;;;-12.54;100.00
65897;BME280;52677;50.898;10.854;2024-01-11T09:00:11;99848.84;;;-12.50;100.00
65897;BME280;52677;50.898;10.854;2024-01-11T09:02:11;99850.72;;;-12.43;100.00
65897;BME280;52677;50.898;10.854;2024-01-11T09:04:11;99856.94;;;-12.36;100.00
65897;BME280;52677;50.898;10.854;2024-01-11T09:06:13;99863.53;;;-12.32;100.00
65897;BME280;52677;50.898;10.854;2024-01-11T09:08:14;99867.50;;;-12.22;100.00
65897;BME280;52677;50.898;10.854;2024-01-11T09:10:14;99854.81;;;-12.13;100.00
65897;BME280;52677;50.898;10.854;2024-01-11T09:12:14;99855.22;;;-12.09;100.00
65897;BME280;52677;50.898;10.854;2024-01-11T09:14:15;99852.00;;;-11.98;100.00
65897;BME280;52677;50.898;10.854;2024-01-11T09:16:15;99857.75;;;-11.95;100.00
65897;BME280;52677;50.898;10.854;2024-01-11T09:18:16;99861.69;;;-11.91;100.00
65897;BME280;52677;50.898;10.854;2024-01-11T09:20:17;99869.50;;;-11.89;100.00
65897;BME280;52677;50.898;10.854;2024-01-11T09:22:18;99859.66;;;-11.88;100.00
65897;BME280;52677;50.898;10.854;2024-01-11T09:24:19;99856.81;;;-11.80;100.00
65897;BME280;52677;50.898;10.854;2024-01-11T09:26:19;99865.63;;;-11.73;100.00
65897;BME280;52677;50.898;10.854;2024-01-11T09:28:19;99875.31;;;-11.66;100.00
65897;BME280;52677;50.898;10.854;2024-01-11T09:30:20;99870.81;;;-11.58;100.00
65897;BME280;52677;50.898;10.854;2024-01-11T09:32:20;99869.59;;;-11.56;100.00
65897;BME280;52677;50.898;10.854;2024-01-11T09:34:20;99864.66;;;-11.52;100.00
65897;BME280;52677;50.898;10.854;2024-01-11T09:36:21;99861.59;;;-11.49;100.00
65897;BME280;52677;50.898;10.854;2024-01-11T09:38:21;99858.72;;;-11.48;100.00
65897;BME280;52677;50.898;10.854;2024-01-11T09:40:23;99861.81;;;-11.44;100.00
65897;BME280;52677;50.898;10.854;2024-01-11T09:42:23;99871.06;;;-11.34;100.00
65897;BME280;52677;50.898;10.854;2024-01-11T09:44:25;99874.59;;;-11.26;100.00
65897;BME280;52677;50.898;10.854;2024-01-11T09:46:26;99879.53;;;-11.23;100.00
65897;BME280;52677;50.898;10.854;2024-01-11T09:48:28;99890.25;;;-11.17;100.00
65897;BME280;52677;50.898;10.854;2024-01-11T09:50:29;99889.84;;;-11.14;100.00
65897;BME280;52677;50.898;10.854;2024-01-11T09:52:30;99873.38;;;-11.11;100.00
65897;BME280;52677;50.898;10.854;2024-01-11T09:54:33;99877.50;;;-11.08;100.00
65897;BME280;52677;50.898;10.854;2024-01-11T09:56:33;99880.38;;;-11.03;100.00
65897;BME280;52677;50.898;10.854;2024-01-11T09:58:36;99868.88;;;-10.97;100.00
65897;BME280;52677;50.898;10.854;2024-01-11T10:00:39;99876.09;;;-10.91;100.00
65897;BME280;52677;50.898;10.854;2024-01-11T10:02:41;99873.63;;;-10.79;100.00
65897;BME280;52677;50.898;10.854;2024-01-11T10:04:42;99869.50;;;-10.68;100.00
65897;BME280;52677;50.898;10.854;2024-01-11T10:06:43;99864.75;;;-10.53;100.00
65897;BME280;52677;50.898;10.854;2024-01-11T10:08:44;99849.72;;;-10.48;100.00
65897;BME280;52677;50.898;10.854;2024-01-11T10:10:44;99853.00;;;-10.39;100.00
65897;BME280;52677;50.898;10.854;2024-01-11T10:12:44;99859.78;;;-10.30;100.00
65897;BME280;52677;50.898;10.854;2024-01-11T10:14:45;99858.75;;;-10.29;100.00
65897;BME280;52677;50.898;10.854;2024-01-11T10:16:45;99864.66;;;-10.20;100.00